sensor_id;sensor_type;location;lat;lon;timestamp;P1;durP1;ratioP1;P2;durP2;ratioP2
55813;SDS011;65494;42.818;0.404;2024-03-02T00:01:59;16.15;;;6.80;;
55813;SDS011;65494;42.818;0.404;2024-03-02T00:09:58;18.73;;;6.50;;
55813;SDS011;65494;42.818;0.404;2024-03-02T00:13:06;15.95;;;6.75;;
55813;SDS011;65494;42.818;0.404;2024-03-02T00:15:42;18.88;;;8.00;;
55813;SDS011;65494;42.818;0.404;2024-03-02T00:47:27;11.85;;;5.22;;
55813;SDS011;65494;42.818;0.404;2024-03-02T01:06:34;8.88;;;3.65;;
55813;SDS011;65494;42.818;0.404;2024-03-02T01:35:45;7.15;;;2.58;;
55813;SDS011;65494;42.818;0.404;2024-03-02T01:38:12;6.18;;;2.42;;
55813;SDS011;65494;42.818;0.404;2024-03-02T01:40:41;11.30;;;3.90;;
55813;SDS011;65494;42.818;0.404;2024-03-02T01:46:26;11.30;;;3.47;;
55813;SDS011;65494;42.818;0.404;2024-03-02T01:49:05;6.80;;;2.33;;
55813;SDS011;65494;42.818;0.404;2024-03-02T01:51:51;6.70;;;2.10;;
55813;SDS011;65494;42.818;0.404;2024-03-02T02:05:02;4.63;;;1.83;;
55813;SDS011;65494;42.818;0.404;2024-03-02T02:07:35;5.43;;;2.35;;
55813;SDS011;65494;42.818;0.404;2024-03-02T02:10:12;6.65;;;2.40;;
55813;SDS011;65494;42.818;0.404;2024-03-02T02:12:49;4.82;;;2.10;;
55813;SDS011;65494;42.818;0.404;2024-03-02T02:15:44;6.07;;;2.40;;
55813;SDS011;65494;42.818;0.404;2024-03-02T02:21:19;5.38;;;2.38;;
55813;SDS011;65494;42.818;0.404;2024-03-02T02:23:52;22.42;;;7.70;;
55813;SDS011;65494;42.818;0.404;2024-03-02T02:26:38;27.40;;;8.90;;
55813;SDS011;65494;42.818;0.404;2024-03-02T02:36:37;83.85;;;26.60;;
55813;SDS011;65494;42.818;0.404;2024-03-02T02:39:15;30.50;;;10.48;;
55813;SDS011;65494;42.818;0.404;2024-03-02T02:42:23;15.70;;;6.00;;
55813;SDS011;65494;42.818;0.404;2024-03-02T02:45:10;8.55;;;2.72;;
55813;SDS011;65494;42.818;0.404;2024-03-02T02:50:58;6.85;;;2.50;;
55813;SDS011;65494;42.818;0.404;2024-03-02T02:53:25;10.73;;;4.38;;
55813;SDS011;65494;42.818;0.404;2024-03-02T02:56:14;8.48;;;2.70;;
55813;SDS011;65494;42.818;0.404;2024-03-02T03:02:37;19.75;;;8.43;;
55813;SDS011;65494;42.818;0.404;2024-03-02T03:05:17;11.00;;;3.38;;
55813;SDS011;65494;42.818;0.404;2024-03-02T03:08:04;4.57;;;1.95;;
55813;SDS011;65494;42.818;0.404;2024-03-02T03:13:42;7.05;;;2.70;;
55813;SDS011;65494;42.818;0.404;2024-03-02T03:19:50;11.25;;;2.28;;
55813;SDS011;65494;42.818;0.404;2024-03-02T03:23:01;5.32;;;2.33;;
55813;SDS011;65494;42.818;0.404;2024-03-02T03:29:07;8.98;;;2.65;;
55813;SDS011;65494;42.818;0.404;2024-03-02T03:47:26;8.50;;;3.00;;
55813;SDS011;65494;42.818;0.404;2024-03-02T03:50:17;9.13;;;3.63;;
55813;SDS011;65494;42.818;0.404;2024-03-02T03:53:09;6.85;;;3.05;;
55813;SDS011;65494;42.818;0.404;2024-03-02T03:55:44;14.93;;;8.20;;
55813;SDS011;65494;42.818;0.404;2024-03-02T04:01:08;7.43;;;3.10;;
55813;SDS011;65494;42.818;0.404;2024-03-02T04:03:49;8.50;;;2.90;;
55813;SDS011;65494;42.818;0.404;2024-03-02T04:06:17;8.20;;;4.10;;
55813;SDS011;65494;42.818;0.404;2024-03-02T04:59:40;6.55;;;2.78;;
55813;SDS011;65494;42.818;0.404;2024-03-02T05:02:06;5.97;;;2.92;;
55813;SDS011;65494;42.818;0.404;2024-03-02T05:04:35;8.23;;;2.78;;
55813;SDS011;65494;42.818;0.404;2024-03-02T05:07:23;5.55;;;2.53;;
55813;SDS011;65494;42.818;0.404;2024-03-02T05:10:09;4.32;;;2.17;;
55813;SDS011;65494;42.818;0.404;2024-03-02T05:26:47;7.25;;;3.50;;
55813;SDS011;65494;42.818;0.404;2024-03-02T05:29:17;8.15;;;3.35;;
55813;SDS011;65494;42.818;0.404;2024-03-02T05:31:52;7.43;;;3.17;;
55813;SDS011;65494;42.818;0.404;2024-03-02T05:34:22;8.32;;;3.40;;
55813;SDS011;65494;42.818;0.404;2024-03-02T05:37:21;6.82;;;2.80;;
55813;SDS011;65494;42.818;0.404;2024-03-02T05:40:10;7.05;;;2.28;;
55813;SDS011;65494;42.818;0.404;2024-03-02T05:43:01;5.55;;;2.40;;
55813;SDS011;65494;42.818;0.404;2024-03-02T05:45:46;5.75;;;2.28;;
55813;SDS011;65494;42.818;0.404;2024-03-02T05:48:23;5.70;;;2.60;;
55813;SDS011;65494;42.818;0.404;2024-03-02T05:50:52;6.22;;;2.63;;
55813;SDS011;65494;42.818;0.404;2024-03-02T05:53:24;9.48;;;3.03;;
55813;SDS011;65494;42.818;0.404;2024-03-02T05:56:02;6.30;;;3.05;;
55813;SDS011;65494;42.818;0.404;2024-03-02T05:58:48;5.25;;;2.58;;
55813;SDS011;65494;42.818;0.404;2024-03-02T06:01:50;6.32;;;2.75;;
55813;SDS011;65494;42.818;0.404;2024-03-02T06:04:22;8.20;;;2.88;;
55813;SDS011;65494;42.818;0.404;2024-03-02T06:07:02;6.22;;;2.50;;
55813;SDS011;65494;42.818;0.404;2024-03-02T06:09:34;6.80;;;3.05;;
55813;SDS011;65494;42.818;0.404;2024-03-02T06:12:04;6.10;;;2.80;;
55813;SDS011;65494;42.818;0.404;2024-03-02T06:14:51;6.82;;;3.05;;
55813;SDS011;65494;42.818;0.404;2024-03-02T06:17:18;8.35;;;3.17;;
55813;SDS011;65494;42.818;0.404;2024-03-02T06:19:50;5.93;;;2.80;;
55813;SDS011;65494;42.818;0.404;2024-03-02T06:22:45;11.35;;;2.35;;
55813;SDS011;65494;42.818;0.404;2024-03-02T06:25:18;7.65;;;3.38;;
55813;SDS011;65494;42.818;0.404;2024-03-02T06:28:02;6.30;;;2.83;;
55813;SDS011;65494;42.818;0.404;2024-03-02T06:30:33;5.93;;;2.58;;
55813;SDS011;65494;42.818;0.404;2024-03-02T06:33:29;6.88;;;2.95;;
55813;SDS011;65494;42.818;0.404;2024-03-02T06:36:36;8.15;;;3.75;;
55813;SDS011;65494;42.818;0.404;2024-03-02T06:39:13;15.20;;;7.95;;
55813;SDS011;65494;42.818;0.404;2024-03-02T06:41:51;5.78;;;2.25;;
55813;SDS011;65494;42.818;0.404;2024-03-02T06:44:51;5.80;;;2.83;;
55813;SDS011;65494;42.818;0.404;2024-03-02T06:47:58;7.13;;;3.08;;
55813;SDS011;65494;42.818;0.404;2024-03-02T06:53:15;10.52;;;4.72;;
55813;SDS011;65494;42.818;0.404;2024-03-02T06:55:47;6.10;;;2.60;;
55813;SDS011;65494;42.818;0.404;2024-03-02T07:08:00;8.43;;;3.47;;
55813;SDS011;65494;42.818;0.404;2024-03-02T07:10:28;7.07;;;3.30;;
55813;SDS011;65494;42.818;0.404;2024-03-02T07:13:03;11.90;;;5.30;;
55813;SDS011;65494;42.818;0.404;2024-03-02T07:19:13;5.93;;;3.00;;
55813;SDS011;65494;42.818;0.404;2024-03-02T07:24:46;3.97;;;1.70;;
55813;SDS011;65494;42.818;0.404;2024-03-02T07:30:50;5.93;;;2.60;;
55813;SDS011;65494;42.818;0.404;2024-03-02T07:58:13;9.40;;;3.20;;
55813;SDS011;65494;42.818;0.404;2024-03-02T08:13:45;7.22;;;2.75;;
55813;SDS011;65494;42.818;0.404;2024-03-02T08:16:39;6.47;;;2.17;;
55813;SDS011;65494;42.818;0.404;2024-03-02T08:25:18;6.68;;;2.00;;
55813;SDS011;65494;42.818;0.404;2024-03-02T08:28:22;9.05;;;2.97;;
55813;SDS011;65494;42.818;0.404;2024-03-02T08:31:24;4.60;;;1.63;;
55813;SDS011;65494;42.818;0.404;2024-03-02T08:34:02;4.50;;;2.20;;
55813;SDS011;65494;42.818;0.404;2024-03-02T08:42:52;1.70;;;1.00;;
55813;SDS011;65494;42.818;0.404;2024-03-02T08:49:15;2.00;;;0.75;;
55813;SDS011;65494;42.818;0.404;2024-03-02T08:58:09;2.03;;;0.70;;
55813;SDS011;65494;42.818;0.404;2024-03-02T09:00:55;0.40;;;0.40;;
55813;SDS011;65494;42.818;0.404;2024-03-02T09:03:24;0.52;;;0.40;;
55813;SDS011;65494;42.818;0.404;2024-03-02T09:12:40;2.25;;;0.90;;
55813;SDS011;65494;42.818;0.404;2024-03-02T09:15:11;0.40;;;0.40;;
55813;SDS011;65494;42.818;0.404;2024-03-02T09:17:41;1.23;;;1.02;;
55813;SDS011;65494;42.818;0.404;2024-03-02T09:20:24;1.98;;;1.25;;
55813;SDS011;65494;42.818;0.404;2024-03-02T09:23:45;2.58;;;1.33;;
55813;SDS011;65494;42.818;0.404;2024-03-02T09:26:16;1.65;;;0.50;;
55813;SDS011;65494;42.818;0.404;2024-03-02T09:29:38;0.50;;;0.30;;
55813;SDS011;65494;42.818;0.404;2024-03-02T09:31:59;2.50;;;1.08;;
55813;SDS011;65494;42.818;0.404;2024-03-02T09:34:26;0.50;;;0.40;;
55813;SDS011;65494;42.818;0.404;2024-03-02T09:36:55;0.28;;;0.28;;
55813;SDS011;65494;42.818;0.404;2024-03-02T09:39:24;0.20;;;0.20;;
55813;SDS011;65494;42.818;0.404;2024-03-02T09:42:19;0.47;;;0.40;;
55813;SDS011;65494;42.818;0.404;2024-03-02T09:44:54;1.58;;;0.77;;
55813;SDS011;65494;42.818;0.404;2024-03-02T09:50:13;3.40;;;0.70;;
55813;SDS011;65494;42.818;0.404;2024-03-02T09:52:52;1.05;;;0.38;;
55813;SDS011;65494;42.818;0.404;2024-03-02T09:55:19;0.90;;;0.60;;
55813;SDS011;65494;42.818;0.404;2024-03-02T09:57:46;0.20;;;0.20;;
55813;SDS011;65494;42.818;0.404;2024-03-02T10:00:19;0.35;;;0.30;;
55813;SDS011;65494;42.818;0.404;2024-03-02T10:03:19;0.40;;;0.32;;
55813;SDS011;65494;42.818;0.404;2024-03-02T10:06:24;0.60;;;0.40;;
55813;SDS011;65494;42.818;0.404;2024-03-02T10:09:11;0.20;;;0.20;;
55813;SDS011;65494;42.818;0.404;2024-03-02T10:11:43;0.98;;;0.50;;
55813;SDS011;65494;42.818;0.404;2024-03-02T10:14:12;2.38;;;1.10;;
55813;SDS011;65494;42.818;0.404;2024-03-02T10:16:41;1.88;;;1.00;;
55813;SDS011;65494;42.818;0.404;2024-03-02T10:19:17;1.33;;;0.85;;
55813;SDS011;65494;42.818;0.404;2024-03-02T10:22:02;3.13;;;1.10;;
55813;SDS011;65494;42.818;0.404;2024-03-02T10:24:38;1.98;;;1.25;;
55813;SDS011;65494;42.818;0.404;2024-03-02T10:27:25;2.00;;;0.63;;
55813;SDS011;65494;42.818;0.404;2024-03-02T10:29:52;1.02;;;0.50;;
55813;SDS011;65494;42.818;0.404;2024-03-02T10:32:24;1.67;;;0.60;;
55813;SDS011;65494;42.818;0.404;2024-03-02T10:34:56;0.30;;;0.30;;
55813;SDS011;65494;42.818;0.404;2024-03-02T10:37:35;1.25;;;0.50;;
55813;SDS011;65494;42.818;0.404;2024-03-02T10:40:10;2.08;;;0.30;;
55813;SDS011;65494;42.818;0.404;2024-03-02T10:42:50;0.20;;;0.20;;
55813;SDS011;65494;42.818;0.404;2024-03-02T10:45:22;0.55;;;0.40;;
55813;SDS011;65494;42.818;0.404;2024-03-02T10:47:52;5.65;;;2.10;;
55813;SDS011;65494;42.818;0.404;2024-03-02T10:50:33;1.95;;;0.80;;
55813;SDS011;65494;42.818;0.404;2024-03-02T10:53:03;3.30;;;1.00;;
55813;SDS011;65494;42.818;0.404;2024-03-02T10:58:07;3.42;;;0.93;;
55813;SDS011;65494;42.818;0.404;2024-03-02T11:01:08;0.73;;;0.30;;
55813;SDS011;65494;42.818;0.404;2024-03-02T11:03:47;0.17;;;0.17;;
55813;SDS011;65494;42.818;0.404;2024-03-02T11:06:37;1.60;;;0.30;;
55813;SDS011;65494;42.818;0.404;2024-03-02T11:09:14;0.20;;;0.20;;
55813;SDS011;65494;42.818;0.404;2024-03-02T11:11:45;0.63;;;0.30;;
55813;SDS011;65494;42.818;0.404;2024-03-02T11:14:24;0.17;;;0.17;;
55813;SDS011;65494;42.818;0.404;2024-03-02T11:16:51;0.25;;;0.25;;
55813;SDS011;65494;42.818;0.404;2024-03-02T11:19:17;0.40;;;0.30;;
55813;SDS011;65494;42.818;0.404;2024-03-02T11:21:46;0.30;;;0.30;;
55813;SDS011;65494;42.818;0.404;2024-03-02T11:26:55;0.28;;;0.28;;
55813;SDS011;65494;42.818;0.404;2024-03-02T11:32:23;0.20;;;0.20;;
55813;SDS011;65494;42.818;0.404;2024-03-02T11:34:50;0.20;;;0.20;;
55813;SDS011;65494;42.818;0.404;2024-03-02T11:37:17;0.28;;;0.28;;
55813;SDS011;65494;42.818;0.404;2024-03-02T11:39:50;0.38;;;0.20;;
55813;SDS011;65494;42.818;0.404;2024-03-02T11:42:20;0.20;;;0.20;;
55813;SDS011;65494;42.818;0.404;2024-03-02T11:44:48;0.47;;;0.35;;
55813;SDS011;65494;42.818;0.404;2024-03-02T11:47:16;0.75;;;0.40;;
55813;SDS011;65494;42.818;0.404;2024-03-02T11:50:02;0.38;;;0.20;;
55813;SDS011;65494;42.818;0.404;2024-03-02T11:52:32;0.20;;;0.20;;
55813;SDS011;65494;42.818;0.404;2024-03-02T11:55:02;0.25;;;0.20;;
55813;SDS011;65494;42.818;0.404;2024-03-02T11:57:29;0.20;;;0.20;;
55813;SDS011;65494;42.818;0.404;2024-03-02T11:59:58;0.30;;;0.30;;
55813;SDS011;65494;42.818;0.404;2024-03-02T12:02:31;4.85;;;0.25;;
55813;SDS011;65494;42.818;0.404;2024-03-02T12:05:15;0.40;;;0.40;;
55813;SDS011;65494;42.818;0.404;2024-03-02T12:07:59;0.47;;;0.25;;
55813;SDS011;65494;42.818;0.404;2024-03-02T12:10:58;0.30;;;0.30;;
55813;SDS011;65494;42.818;0.404;2024-03-02T12:13:39;0.22;;;0.20;;
55813;SDS011;65494;42.818;0.404;2024-03-02T12:16:37;0.30;;;0.20;;
55813;SDS011;65494;42.818;0.404;2024-03-02T12:19:34;1.27;;;0.50;;
55813;SDS011;65494;42.818;0.404;2024-03-02T12:23:06;0.47;;;0.40;;
55813;SDS011;65494;42.818;0.404;2024-03-02T12:25:35;0.60;;;0.50;;
55813;SDS011;65494;42.818;0.404;2024-03-02T12:28:07;0.30;;;0.30;;
55813;SDS011;65494;42.818;0.404;2024-03-02T12:30:35;0.63;;;0.30;;
55813;SDS011;65494;42.818;0.404;2024-03-02T12:33:10;0.10;;;0.10;;
55813;SDS011;65494;42.818;0.404;2024-03-02T12:35:59;0.38;;;0.38;;
55813;SDS011;65494;42.818;0.404;2024-03-02T12:38:26;0.35;;;0.35;;
55813;SDS011;65494;42.818;0.404;2024-03-02T12:40:57;0.20;;;0.20;;
55813;SDS011;65494;42.818;0.404;2024-03-02T12:43:31;0.85;;;0.32;;
55813;SDS011;65494;42.818;0.404;2024-03-02T12:45:58;6.05;;;0.30;;
55813;SDS011;65494;42.818;0.404;2024-03-02T12:48:24;0.20;;;0.20;;
55813;SDS011;65494;42.818;0.404;2024-03-02T12:50:51;0.50;;;0.43;;
55813;SDS011;65494;42.818;0.404;2024-03-02T12:53:21;0.10;;;0.10;;
55813;SDS011;65494;42.818;0.404;2024-03-02T12:55:48;3.83;;;1.38;;
55813;SDS011;65494;42.818;0.404;2024-03-02T12:58:17;0.70;;;0.30;;
55813;SDS011;65494;42.818;0.404;2024-03-02T13:01:05;3.05;;;0.82;;
55813;SDS011;65494;42.818;0.404;2024-03-02T13:03:34;8.77;;;0.45;;
55813;SDS011;65494;42.818;0.404;2024-03-02T13:06:01;0.88;;;0.88;;
55813;SDS011;65494;42.818;0.404;2024-03-02T13:08:27;0.30;;;0.30;;
55813;SDS011;65494;42.818;0.404;2024-03-02T13:10:54;1.10;;;0.90;;
55813;SDS011;65494;42.818;0.404;2024-03-02T13:13:40;0.93;;;0.70;;
55813;SDS011;65494;42.818;0.404;2024-03-02T13:16:10;0.30;;;0.30;;
55813;SDS011;65494;42.818;0.404;2024-03-02T13:18:37;0.73;;;0.65;;
55813;SDS011;65494;42.818;0.404;2024-03-02T13:21:04;0.40;;;0.40;;
55813;SDS011;65494;42.818;0.404;2024-03-02T13:23:33;0.20;;;0.20;;
55813;SDS011;65494;42.818;0.404;2024-03-02T13:26:03;0.77;;;0.60;;
55813;SDS011;65494;42.818;0.404;2024-03-02T13:28:29;0.47;;;0.30;;
55813;SDS011;65494;42.818;0.404;2024-03-02T13:30:56;4.82;;;2.10;;
55813;SDS011;65494;42.818;0.404;2024-03-02T13:33:38;3.05;;;1.52;;
55813;SDS011;65494;42.818;0.404;2024-03-02T13:36:05;0.28;;;0.28;;
55813;SDS011;65494;42.818;0.404;2024-03-02T13:38:31;0.50;;;0.43;;
55813;SDS011;65494;42.818;0.404;2024-03-02T13:40:57;0.30;;;0.20;;
55813;SDS011;65494;42.818;0.404;2024-03-02T13:43:25;0.30;;;0.30;;
55813;SDS011;65494;42.818;0.404;2024-03-02T13:45:52;0.30;;;0.30;;
55813;SDS011;65494;42.818;0.404;2024-03-02T13:48:21;0.30;;;0.30;;
55813;SDS011;65494;42.818;0.404;2024-03-02T13:50:47;0.20;;;0.20;;
55813;SDS011;65494;42.818;0.404;2024-03-02T13:53:14;0.95;;;0.38;;
55813;SDS011;65494;42.818;0.404;2024-03-02T13:55:40;0.47;;;0.30;;
55813;SDS011;65494;42.818;0.404;2024-03-02T13:58:07;0.30;;;0.30;;
55813;SDS011;65494;42.818;0.404;2024-03-02T14:00:36;2.88;;;0.65;;
55813;SDS011;65494;42.818;0.404;2024-03-02T14:03:04;0.55;;;0.20;;
55813;SDS011;65494;42.818;0.404;2024-03-02T14:05:30;0.45;;;0.40;;
55813;SDS011;65494;42.818;0.404;2024-03-02T14:07:57;1.25;;;0.70;;
55813;SDS011;65494;42.818;0.404;2024-03-02T14:10:25;2.70;;;1.40;;
55813;SDS011;65494;42.818;0.404;2024-03-02T14:12:52;0.30;;;0.30;;
55813;SDS011;65494;42.818;0.404;2024-03-02T14:15:20;0.20;;;0.20;;
55813;SDS011;65494;42.818;0.404;2024-03-02T14:17:46;1.95;;;0.30;;
55813;SDS011;65494;42.818;0.404;2024-03-02T14:20:12;0.20;;;0.20;;
55813;SDS011;65494;42.818;0.404;2024-03-02T14:22:39;0.45;;;0.20;;
55813;SDS011;65494;42.818;0.404;2024-03-02T14:25:17;0.20;;;0.20;;
55813;SDS011;65494;42.818;0.404;2024-03-02T14:27:44;0.20;;;0.20;;
55813;SDS011;65494;42.818;0.404;2024-03-02T14:30:14;0.20;;;0.20;;
55813;SDS011;65494;42.818;0.404;2024-03-02T14:32:46;0.20;;;0.20;;
55813;SDS011;65494;42.818;0.404;2024-03-02T14:35:12;0.25;;;0.25;;
55813;SDS011;65494;42.818;0.404;2024-03-02T14:37:45;0.20;;;0.20;;
55813;SDS011;65494;42.818;0.404;2024-03-02T14:40:22;2.72;;;0.30;;
55813;SDS011;65494;42.818;0.404;2024-03-02T14:42:59;0.20;;;0.20;;
55813;SDS011;65494;42.818;0.404;2024-03-02T14:45:26;0.30;;;0.30;;
55813;SDS011;65494;42.818;0.404;2024-03-02T14:47:57;0.20;;;0.20;;
55813;SDS011;65494;42.818;0.404;2024-03-02T14:50:30;0.22;;;0.22;;
55813;SDS011;65494;42.818;0.404;2024-03-02T14:52:59;0.82;;;0.40;;
55813;SDS011;65494;42.818;0.404;2024-03-02T14:55:26;0.32;;;0.20;;
55813;SDS011;65494;42.818;0.404;2024-03-02T14:57:58;0.25;;;0.25;;
55813;SDS011;65494;42.818;0.404;2024-03-02T15:00:25;1.08;;;0.40;;
55813;SDS011;65494;42.818;0.404;2024-03-02T15:02:53;0.50;;;0.50;;
55813;SDS011;65494;42.818;0.404;2024-03-02T15:05:36;0.40;;;0.30;;
55813;SDS011;65494;42.818;0.404;2024-03-02T15:08:11;0.20;;;0.20;;
55813;SDS011;65494;42.818;0.404;2024-03-02T15:10:42;0.35;;;0.32;;
55813;SDS011;65494;42.818;0.404;2024-03-02T15:13:14;0.52;;;0.35;;
55813;SDS011;65494;42.818;0.404;2024-03-02T15:15:46;0.55;;;0.30;;
55813;SDS011;65494;42.818;0.404;2024-03-02T15:18:22;0.30;;;0.30;;
55813;SDS011;65494;42.818;0.404;2024-03-02T15:20:49;0.52;;;0.35;;
55813;SDS011;65494;42.818;0.404;2024-03-02T15:23:15;0.20;;;0.20;;
55813;SDS011;65494;42.818;0.404;2024-03-02T15:25:42;0.38;;;0.38;;
55813;SDS011;65494;42.818;0.404;2024-03-02T15:28:11;0.50;;;0.50;;
55813;SDS011;65494;42.818;0.404;2024-03-02T15:30:38;0.38;;;0.30;;
55813;SDS011;65494;42.818;0.404;2024-03-02T15:33:07;0.68;;;0.30;;
55813;SDS011;65494;42.818;0.404;2024-03-02T15:35:36;16.73;;;8.57;;
55813;SDS011;65494;42.818;0.404;2024-03-02T15:38:07;0.82;;;0.50;;
55813;SDS011;65494;42.818;0.404;2024-03-02T15:40:48;2.45;;;0.60;;
55813;SDS011;65494;42.818;0.404;2024-03-02T15:43:37;0.30;;;0.30;;
55813;SDS011;65494;42.818;0.404;2024-03-02T15:46:16;0.20;;;0.20;;
55813;SDS011;65494;42.818;0.404;2024-03-02T15:48:47;0.43;;;0.30;;
55813;SDS011;65494;42.818;0.404;2024-03-02T15:51:22;0.20;;;0.20;;
55813;SDS011;65494;42.818;0.404;2024-03-02T15:54:03;0.20;;;0.20;;
55813;SDS011;65494;42.818;0.404;2024-03-02T15:56:35;0.60;;;0.30;;
55813;SDS011;65494;42.818;0.404;2024-03-02T15:59:03;0.10;;;0.10;;
55813;SDS011;65494;42.818;0.404;2024-03-02T16:01:32;0.25;;;0.25;;
55813;SDS011;65494;42.818;0.404;2024-03-02T16:04:04;0.30;;;0.30;;
55813;SDS011;65494;42.818;0.404;2024-03-02T16:06:34;2.38;;;1.10;;
55813;SDS011;65494;42.818;0.404;2024-03-02T16:09:00;2.92;;;1.45;;
55813;SDS011;65494;42.818;0.404;2024-03-02T16:11:28;0.90;;;0.40;;
55813;SDS011;65494;42.818;0.404;2024-03-02T16:13:57;0.20;;;0.20;;
55813;SDS011;65494;42.818;0.404;2024-03-02T16:16:24;1.88;;;0.80;;
55813;SDS011;65494;42.818;0.404;2024-03-02T16:18:53;0.30;;;0.30;;
55813;SDS011;65494;42.818;0.404;2024-03-02T16:21:19;1.70;;;0.80;;
55813;SDS011;65494;42.818;0.404;2024-03-02T16:23:55;11.93;;;5.05;;
55813;SDS011;65494;42.818;0.404;2024-03-02T16:26:26;4.75;;;2.88;;
55813;SDS011;65494;42.818;0.404;2024-03-02T16:28:58;3.38;;;1.60;;
55813;SDS011;65494;42.818;0.404;2024-03-02T16:31:25;0.50;;;0.50;;
55813;SDS011;65494;42.818;0.404;2024-03-02T16:33:54;1.17;;;0.85;;
55813;SDS011;65494;42.818;0.404;2024-03-02T16:36:20;3.38;;;1.80;;
55813;SDS011;65494;42.818;0.404;2024-03-02T16:38:52;3.63;;;1.90;;
55813;SDS011;65494;42.818;0.404;2024-03-02T16:41:18;1.90;;;1.20;;
55813;SDS011;65494;42.818;0.404;2024-03-02T16:43:44;3.30;;;1.73;;
55813;SDS011;65494;42.818;0.404;2024-03-02T16:46:11;5.20;;;2.15;;
55813;SDS011;65494;42.818;0.404;2024-03-02T16:48:37;12.02;;;2.63;;
55813;SDS011;65494;42.818;0.404;2024-03-02T16:51:03;7.22;;;2.78;;
55813;SDS011;65494;42.818;0.404;2024-03-02T16:53:30;6.07;;;2.65;;
55813;SDS011;65494;42.818;0.404;2024-03-02T16:55:59;3.40;;;1.38;;
55813;SDS011;65494;42.818;0.404;2024-03-02T16:58:32;3.90;;;1.80;;
55813;SDS011;65494;42.818;0.404;2024-03-02T17:01:01;0.70;;;0.60;;
55813;SDS011;65494;42.818;0.404;2024-03-02T17:03:28;0.35;;;0.35;;
55813;SDS011;65494;42.818;0.404;2024-03-02T17:05:54;0.73;;;0.73;;
55813;SDS011;65494;42.818;0.404;2024-03-02T17:08:21;6.50;;;2.50;;
55813;SDS011;65494;42.818;0.404;2024-03-02T17:10:47;3.90;;;1.42;;
55813;SDS011;65494;42.818;0.404;2024-03-02T17:13:15;6.55;;;2.30;;
55813;SDS011;65494;42.818;0.404;2024-03-02T17:15:44;7.43;;;3.85;;
55813;SDS011;65494;42.818;0.404;2024-03-02T17:18:10;1.67;;;0.73;;
55813;SDS011;65494;42.818;0.404;2024-03-02T17:20:36;2.95;;;1.55;;
55813;SDS011;65494;42.818;0.404;2024-03-02T17:23:03;2.22;;;1.25;;
55813;SDS011;65494;42.818;0.404;2024-03-02T17:25:32;1.42;;;1.00;;
55813;SDS011;65494;42.818;0.404;2024-03-02T17:28:20;4.55;;;1.50;;
55813;SDS011;65494;42.818;0.404;2024-03-02T17:30:49;10.23;;;3.50;;
55813;SDS011;65494;42.818;0.404;2024-03-02T17:33:15;4.40;;;1.48;;
55813;SDS011;65494;42.818;0.404;2024-03-02T17:35:41;7.25;;;3.47;;
55813;SDS011;65494;42.818;0.404;2024-03-02T17:38:11;11.60;;;5.30;;
55813;SDS011;65494;42.818;0.404;2024-03-02T17:40:40;10.77;;;4.50;;
55813;SDS011;65494;42.818;0.404;2024-03-02T17:43:08;18.27;;;8.38;;
55813;SDS011;65494;42.818;0.404;2024-03-02T17:45:36;13.27;;;5.57;;
55813;SDS011;65494;42.818;0.404;2024-03-02T17:50:47;13.40;;;7.63;;
55813;SDS011;65494;42.818;0.404;2024-03-02T17:54:14;6.70;;;3.72;;
55813;SDS011;65494;42.818;0.404;2024-03-02T17:56:38;8.55;;;4.78;;
55813;SDS011;65494;42.818;0.404;2024-03-02T17:59:04;7.85;;;4.15;;
55813;SDS011;65494;42.818;0.404;2024-03-02T18:04:47;11.10;;;5.25;;
55813;SDS011;65494;42.818;0.404;2024-03-02T18:09:55;14.48;;;5.97;;
55813;SDS011;65494;42.818;0.404;2024-03-02T18:12:26;7.35;;;3.50;;
55813;SDS011;65494;42.818;0.404;2024-03-02T18:14:58;4.60;;;2.28;;
55813;SDS011;65494;42.818;0.404;2024-03-02T18:17:31;3.50;;;2.10;;
55813;SDS011;65494;42.818;0.404;2024-03-02T18:19:59;5.35;;;2.50;;
55813;SDS011;65494;42.818;0.404;2024-03-02T18:22:29;11.25;;;4.35;;
55813;SDS011;65494;42.818;0.404;2024-03-02T18:24:57;7.03;;;2.88;;
55813;SDS011;65494;42.818;0.404;2024-03-02T18:27:24;5.82;;;2.80;;
55813;SDS011;65494;42.818;0.404;2024-03-02T18:29:53;6.90;;;2.78;;
55813;SDS011;65494;42.818;0.404;2024-03-02T18:32:22;5.35;;;2.55;;
55813;SDS011;65494;42.818;0.404;2024-03-02T18:34:57;9.65;;;4.90;;
55813;SDS011;65494;42.818;0.404;2024-03-02T18:37:29;12.80;;;5.50;;
55813;SDS011;65494;42.818;0.404;2024-03-02T18:39:58;6.25;;;2.33;;
55813;SDS011;65494;42.818;0.404;2024-03-02T18:42:33;7.15;;;2.60;;
55813;SDS011;65494;42.818;0.404;2024-03-02T18:45:00;6.10;;;2.60;;
55813;SDS011;65494;42.818;0.404;2024-03-02T18:47:30;10.40;;;4.45;;
55813;SDS011;65494;42.818;0.404;2024-03-02T18:50:00;11.95;;;6.07;;
55813;SDS011;65494;42.818;0.404;2024-03-02T18:52:32;3.22;;;1.25;;
55813;SDS011;65494;42.818;0.404;2024-03-02T18:55:04;0.60;;;0.60;;
55813;SDS011;65494;42.818;0.404;2024-03-02T18:57:34;2.83;;;0.77;;
55813;SDS011;65494;42.818;0.404;2024-03-02T19:00:00;3.53;;;1.73;;
55813;SDS011;65494;42.818;0.404;2024-03-02T19:02:39;0.88;;;0.60;;
55813;SDS011;65494;42.818;0.404;2024-03-02T19:05:29;6.88;;;2.50;;
55813;SDS011;65494;42.818;0.404;2024-03-02T19:08:27;5.20;;;2.38;;
55813;SDS011;65494;42.818;0.404;2024-03-02T19:10:56;5.28;;;2.33;;
55813;SDS011;65494;42.818;0.404;2024-03-02T19:13:31;7.18;;;2.30;;
55813;SDS011;65494;42.818;0.404;2024-03-02T19:16:00;5.53;;;2.10;;
55813;SDS011;65494;42.818;0.404;2024-03-02T19:18:34;13.45;;;6.95;;
55813;SDS011;65494;42.818;0.404;2024-03-02T19:21:03;12.93;;;5.88;;
55813;SDS011;65494;42.818;0.404;2024-03-02T19:23:40;7.80;;;3.78;;
55813;SDS011;65494;42.818;0.404;2024-03-02T19:26:09;6.45;;;3.63;;
55813;SDS011;65494;42.818;0.404;2024-03-02T19:28:54;6.82;;;3.03;;
55813;SDS011;65494;42.818;0.404;2024-03-02T19:31:38;7.25;;;3.10;;
55813;SDS011;65494;42.818;0.404;2024-03-02T19:34:05;15.82;;;8.20;;
55813;SDS011;65494;42.818;0.404;2024-03-02T19:36:34;14.38;;;7.50;;
55813;SDS011;65494;42.818;0.404;2024-03-02T19:39:26;6.22;;;2.92;;
55813;SDS011;65494;42.818;0.404;2024-03-02T19:41:55;8.50;;;3.90;;
55813;SDS011;65494;42.818;0.404;2024-03-02T19:44:30;6.30;;;3.70;;
55813;SDS011;65494;42.818;0.404;2024-03-02T19:47:01;9.82;;;4.18;;
55813;SDS011;65494;42.818;0.404;2024-03-02T19:49:28;5.72;;;2.35;;
55813;SDS011;65494;42.818;0.404;2024-03-02T19:51:56;5.90;;;2.45;;
55813;SDS011;65494;42.818;0.404;2024-03-02T19:54:26;3.95;;;1.90;;
55813;SDS011;65494;42.818;0.404;2024-03-02T19:57:00;8.27;;;3.70;;
55813;SDS011;65494;42.818;0.404;2024-03-02T19:59:32;3.42;;;1.90;;
55813;SDS011;65494;42.818;0.404;2024-03-02T20:02:12;2.80;;;1.80;;
55813;SDS011;65494;42.818;0.404;2024-03-02T20:04:39;1.67;;;1.15;;
55813;SDS011;65494;42.818;0.404;2024-03-02T20:07:08;3.95;;;1.77;;
55813;SDS011;65494;42.818;0.404;2024-03-02T20:09:35;2.60;;;1.38;;
55813;SDS011;65494;42.818;0.404;2024-03-02T20:12:02;4.68;;;2.10;;
55813;SDS011;65494;42.818;0.404;2024-03-02T20:14:30;1.70;;;1.40;;
55813;SDS011;65494;42.818;0.404;2024-03-02T20:16:56;5.72;;;2.97;;
55813;SDS011;65494;42.818;0.404;2024-03-02T20:19:22;4.72;;;2.45;;
55813;SDS011;65494;42.818;0.404;2024-03-02T20:25:00;2.67;;;1.38;;
55813;SDS011;65494;42.818;0.404;2024-03-02T20:34:23;14.15;;;5.30;;
55813;SDS011;65494;42.818;0.404;2024-03-02T20:36:49;17.38;;;6.00;;
55813;SDS011;65494;42.818;0.404;2024-03-02T20:39:21;11.05;;;3.25;;
55813;SDS011;65494;42.818;0.404;2024-03-02T20:45:02;12.05;;;6.50;;
55813;SDS011;65494;42.818;0.404;2024-03-02T20:47:30;6.88;;;3.38;;
55813;SDS011;65494;42.818;0.404;2024-03-02T20:49:59;8.55;;;3.55;;
55813;SDS011;65494;42.818;0.404;2024-03-02T20:52:25;8.80;;;3.80;;
55813;SDS011;65494;42.818;0.404;2024-03-02T20:54:54;7.72;;;2.63;;